createdAt,value
2023-03-26T00:00:42.237Z,99.99
2023-03-26T00:01:42.122Z,99.99
2023-03-26T00:02:42.075Z,99.99
2023-03-26T00:03:41.986Z,99.99
2023-03-26T00:05:02.910Z,99.99
2023-03-26T00:05:41.934Z,99.99
2023-03-26T00:06:41.818Z,99.99
2023-03-26T00:07:41.756Z,99.99
2023-03-26T00:08:41.705Z,99.99
2023-03-26T00:09:41.655Z,99.99
2023-03-26T00:10:41.568Z,99.99
2023-03-26T00:11:41.546Z,99.99
2023-03-26T00:12:41.418Z,99.99
2023-03-26T00:13:41.368Z,99.99
2023-03-26T00:14:41.311Z,99.99
2023-03-26T00:15:41.238Z,99.99
2023-03-26T00:16:41.266Z,99.99
2023-03-26T00:17:41.233Z,99.99
2023-03-26T00:18:41.121Z,99.99
2023-03-26T00:19:40.986Z,99.99
2023-03-26T00:20:40.966Z,99.99
2023-03-26T00:21:40.914Z,99.99
2023-03-26T00:22:40.843Z,99.99
2023-03-26T00:23:40.749Z,99.99
2023-03-26T00:24:40.670Z,99.99
2023-03-26T00:25:40.682Z,99.99
2023-03-26T00:26:40.583Z,99.99
2023-03-26T00:27:40.532Z,99.99
2023-03-26T00:28:40.692Z,99.99
2023-03-26T00:29:40.363Z,99.99
2023-03-26T00:30:40.306Z,99.99
2023-03-26T00:31:40.225Z,99.99
2023-03-26T00:32:40.199Z,99.99
2023-03-26T00:33:40.139Z,99.99
2023-03-26T00:34:40.062Z,99.99
2023-03-26T00:35:40.036Z,99.99
2023-03-26T00:36:39.959Z,99.99
2023-03-26T00:37:39.858Z,99.99
2023-03-26T00:38:39.870Z,99.99
2023-03-26T00:39:39.738Z,99.99
2023-03-26T00:40:39.769Z,99.99
2023-03-26T00:41:39.607Z,99.99
2023-03-26T00:42:39.553Z,99.99
2023-03-26T00:43:39.492Z,99.99
2023-03-26T00:44:39.450Z,99.99
2023-03-26T00:45:39.372Z,99.99
2023-03-26T00:46:39.339Z,99.99
2023-03-26T00:47:39.280Z,99.99
2023-03-26T00:49:39.130Z,99.99
2023-03-26T00:50:39.070Z,99.99
2023-03-26T00:51:39.214Z,99.99
2023-03-26T00:52:38.959Z,99.99
2023-03-26T00:53:39.739Z,99.99
2023-03-26T00:54:38.857Z,99.99
2023-03-26T00:55:38.732Z,99.99
2023-03-26T00:56:39.019Z,99.99
2023-03-26T00:57:38.625Z,99.99
2023-03-26T00:58:59.548Z,99.99
2023-03-26T00:59:38.549Z,99.99
2023-03-26T01:00:38.414Z,99.99
2023-03-26T01:01:39.251Z,99.99
2023-03-26T01:02:38.364Z,99.99
2023-03-26T01:03:38.339Z,99.99
2023-03-26T01:04:38.296Z,99.99
2023-03-26T01:05:38.156Z,99.99
2023-03-26T01:06:38.076Z,99.99
2023-03-26T01:07:38.003Z,99.99
2023-03-26T01:08:37.939Z,99.99
2023-03-26T01:09:37.883Z,99.99
2023-03-26T01:10:37.833Z,99.99
2023-03-26T01:11:37.785Z,99.99
2023-03-26T01:12:37.675Z,99.99
2023-03-26T01:13:37.572Z,99.87
2023-03-26T01:14:37.530Z,99.77
2023-03-26T01:15:37.619Z,99.77
2023-03-26T01:16:37.393Z,99.99
2023-03-26T01:17:37.353Z,99.99
2023-03-26T01:18:37.257Z,99.99
2023-03-26T01:19:37.288Z,99.99
2023-03-26T01:20:37.150Z,99.66
2023-03-26T01:21:37.129Z,99.66
2023-03-26T01:22:37.084Z,99.46
2023-03-26T01:23:36.960Z,99.25
2023-03-26T01:24:36.966Z,99.56
2023-03-26T01:25:36.846Z,99.15
2023-03-26T01:26:36.803Z,99.46
2023-03-26T01:27:36.708Z,99.46
2023-03-26T01:28:36.700Z,99.15
2023-03-26T01:29:36.617Z,99.46
2023-03-26T01:30:36.553Z,99.35
2023-03-26T01:31:36.458Z,99.05
2023-03-26T01:32:36.507Z,99.25
2023-03-26T01:33:36.473Z,99.56
2023-03-26T01:36:15.282Z,99.05
2023-03-26T01:37:16.251Z,99.15
2023-03-26T01:38:16.192Z,99.35
2023-03-26T01:39:16.103Z,98.94
2023-03-26T01:40:16.008Z,98.74
2023-03-26T01:41:16.062Z,99.15
2023-03-26T01:42:15.892Z,99.35
2023-03-26T01:43:15.832Z,98.94
2023-03-26T01:44:15.791Z,98.74
2023-03-26T01:45:15.757Z,98.84
2023-03-26T01:46:15.706Z,98.63
2023-03-26T01:47:15.643Z,98.53
2023-03-26T01:48:15.572Z,98.63
2023-03-26T01:49:15.486Z,98.32
2023-03-26T01:50:15.391Z,98.43
2023-03-26T01:51:15.350Z,98.53
2023-03-26T01:52:15.291Z,98.53
2023-03-26T01:53:15.248Z,99.05
2023-03-26T01:54:15.194Z,99.46
2023-03-26T01:55:15.141Z,99.35
2023-03-26T01:56:15.016Z,99.15
2023-03-26T01:57:15.008Z,99.05
2023-03-26T01:58:14.962Z,99.46
2023-03-26T01:59:14.885Z,99.98
2023-03-26T02:00:14.812Z,99.87
2023-03-26T02:01:15.250Z,99.98
2023-03-26T02:02:14.767Z,99.99
2023-03-26T02:03:14.702Z,99.99
2023-03-26T02:04:14.567Z,99.99
2023-03-26T02:05:14.488Z,99.99
2023-03-26T02:06:14.443Z,99.99
2023-03-26T02:07:14.376Z,99.99
2023-03-26T02:08:14.293Z,99.66
2023-03-26T02:09:14.225Z,99.87
2023-03-26T02:10:14.134Z,99.66
2023-03-26T02:11:35.869Z,99.56
2023-03-26T02:12:14.066Z,99.25
2023-03-26T02:13:13.966Z,99.25
2023-03-26T02:14:13.915Z,99.25
2023-03-26T02:15:13.873Z,99.46
2023-03-26T02:16:13.818Z,99.77
2023-03-26T02:17:13.766Z,99.87
2023-03-26T02:18:13.678Z,99.87
2023-03-26T02:19:13.601Z,99.99
2023-03-26T02:20:13.557Z,99.99
2023-03-26T02:21:13.511Z,99.99
2023-03-26T02:22:13.459Z,99.99
2023-03-26T02:23:13.407Z,99.99
2023-03-26T02:24:13.320Z,99.99
2023-03-26T02:25:13.292Z,99.99
2023-03-26T02:26:13.189Z,99.99
2023-03-26T02:27:13.122Z,99.99
2023-03-26T02:28:13.070Z,99.99
2023-03-26T02:29:33.976Z,99.99
2023-03-26T02:30:12.942Z,99.99
2023-03-26T02:31:12.945Z,99.77
2023-03-26T02:32:12.786Z,99.77
2023-03-26T02:33:12.790Z,99.66
2023-03-26T02:34:12.652Z,99.66
2023-03-26T02:35:12.858Z,99.46
2023-03-26T02:36:12.635Z,99.25
2023-03-26T02:37:12.534Z,99.25
2023-03-26T02:38:12.485Z,99.56
2023-03-26T02:39:12.381Z,99.35
2023-03-26T02:40:12.326Z,99.35
2023-03-26T02:41:12.334Z,99.99
2023-03-26T02:42:12.226Z,99.99
2023-03-26T02:43:12.166Z,99.87
2023-03-26T02:44:12.034Z,99.87
2023-03-26T02:45:12.011Z,99.77
2023-03-26T02:46:12.012Z,99.46
2023-03-26T02:48:21.079Z,99.05
2023-03-26T02:49:22.038Z,99.15
2023-03-26T02:50:21.955Z,99.25
2023-03-26T02:51:21.927Z,98.74
2023-03-26T02:52:21.836Z,98.74
2023-03-26T02:53:21.788Z,98.74
2023-03-26T02:54:21.703Z,98.53
2023-03-26T02:55:21.651Z,98.47
2023-03-26T02:56:21.574Z,98.37
2023-03-26T02:57:21.482Z,98.53
2023-03-26T02:58:21.419Z,98.47
2023-03-26T02:59:21.426Z,98.53
2023-03-26T03:00:21.320Z,98.57
2023-03-26T03:01:21.303Z,98.68
2023-03-26T03:02:21.243Z,99.05
2023-03-26T03:03:21.177Z,99.15
2023-03-26T03:04:21.047Z,98.94
2023-03-26T03:07:00.029Z,99.87
2023-03-26T03:08:00.941Z,99.46
2023-03-26T03:09:00.922Z,99.35
2023-03-26T03:10:00.818Z,99.15
2023-03-26T03:12:09.943Z,98.74
2023-03-26T03:13:10.941Z,99.05
2023-03-26T03:14:10.809Z,99.05
2023-03-26T03:15:10.755Z,99.05
2023-03-26T03:16:10.811Z,99.25
2023-03-26T03:17:10.642Z,99.35
2023-03-26T03:18:10.604Z,99.35
2023-03-26T03:19:10.524Z,99.25
2023-03-26T03:20:10.452Z,99.25
2023-03-26T03:21:10.426Z,99.25
2023-03-26T03:22:10.313Z,99.46
2023-03-26T03:23:10.302Z,99.77
2023-03-26T03:24:10.199Z,99.66
2023-03-26T03:25:10.144Z,99.56
2023-03-26T03:26:10.136Z,99.35
2023-03-26T03:27:10.020Z,99.35
2023-03-26T03:28:09.973Z,99.15
2023-03-26T03:29:09.964Z,99.56
2023-03-26T03:30:09.853Z,99.56
2023-03-26T03:31:09.866Z,99.56
2023-03-26T03:32:09.735Z,99.87
2023-03-26T03:33:09.613Z,99.77
2023-03-26T03:34:09.641Z,99.61
2023-03-26T03:35:09.509Z,99.77
2023-03-26T03:36:09.494Z,99.98
2023-03-26T03:37:09.433Z,99.99
2023-03-26T03:38:09.362Z,99.99
2023-03-26T03:39:09.291Z,99.99
2023-03-26T03:40:09.204Z,99.99
2023-03-26T03:41:30.154Z,99.99
2023-03-26T03:42:09.145Z,99.99
2023-03-26T03:43:09.050Z,99.99
2023-03-26T03:44:09.030Z,99.99
2023-03-26T03:45:08.940Z,99.99
2023-03-26T03:46:08.906Z,99.99
2023-03-26T03:47:08.854Z,99.99
2023-03-26T03:48:08.837Z,99.99
2023-03-26T03:49:08.640Z,99.99
2023-03-26T03:50:08.614Z,99.99
2023-03-26T03:51:08.558Z,99.99
2023-03-26T03:52:08.523Z,99.99
2023-03-26T03:53:08.441Z,99.99
2023-03-26T03:54:08.938Z,99.99
2023-03-26T03:55:08.248Z,99.99
2023-03-26T03:56:08.234Z,99.99
2023-03-26T03:57:08.200Z,99.92
2023-03-26T03:58:08.129Z,99.99
2023-03-26T03:59:08.058Z,99.99
2023-03-26T04:00:08.016Z,99.99
2023-03-26T04:01:07.977Z,99.99
2023-03-26T04:02:07.825Z,99.99
2023-03-26T04:03:07.856Z,99.99
2023-03-26T04:04:07.771Z,99.99
2023-03-26T04:05:08.434Z,99.99
2023-03-26T04:06:07.647Z,99.99
2023-03-26T04:07:07.526Z,99.99
2023-03-26T04:08:07.521Z,99.99
2023-03-26T04:09:07.425Z,99.99
2023-03-26T04:10:07.364Z,99.99
2023-03-26T04:11:07.319Z,99.99
2023-03-26T04:12:07.234Z,99.99
2023-03-26T04:13:07.171Z,99.99
2023-03-26T04:14:07.071Z,99.99
2023-03-26T04:15:07.053Z,99.99
2023-03-26T04:16:07.055Z,99.99
2023-03-26T04:17:06.899Z,99.99
2023-03-26T04:18:06.906Z,99.99
2023-03-26T04:19:06.799Z,99.99
2023-03-26T04:20:06.787Z,99.99
2023-03-26T04:21:06.677Z,99.99
2023-03-26T04:22:06.590Z,99.99
2023-03-26T04:23:06.569Z,99.99
2023-03-26T04:24:06.465Z,99.99
2023-03-26T04:25:06.376Z,99.99
2023-03-26T04:26:06.314Z,99.99
2023-03-26T04:27:06.298Z,99.99
2023-03-26T04:28:06.253Z,99.99
2023-03-26T04:29:06.149Z,99.99
2023-03-26T04:30:06.086Z,99.99
2023-03-26T04:31:06.095Z,99.99
2023-03-26T04:32:05.962Z,99.99
2023-03-26T04:33:05.971Z,99.99
2023-03-26T04:34:05.859Z,99.99
2023-03-26T04:35:05.773Z,99.99
2023-03-26T04:36:05.741Z,99.99
2023-03-26T04:37:05.644Z,99.99
2023-03-26T04:38:05.613Z,99.99
2023-03-26T04:39:05.610Z,99.99
2023-03-26T04:40:05.438Z,99.99
2023-03-26T04:41:05.438Z,99.99
2023-03-26T04:42:05.334Z,99.99
2023-03-26T04:43:05.314Z,99.99
2023-03-26T04:44:05.226Z,99.87
2023-03-26T04:45:05.209Z,99.77
2023-03-26T04:46:05.037Z,99.77
2023-03-26T04:47:05.090Z,99.66
2023-03-26T04:48:05.031Z,99.66
2023-03-26T04:49:04.887Z,99.56
2023-03-26T04:50:04.890Z,99.77
2023-03-26T04:51:04.726Z,99.87
2023-03-26T04:52:04.752Z,99.87
2023-03-26T04:53:04.649Z,99.98
2023-03-26T04:54:04.567Z,99.99
2023-03-26T04:55:04.490Z,99.99
2023-03-26T04:56:04.435Z,99.99
2023-03-26T04:57:04.441Z,99.99
2023-03-26T04:58:04.283Z,99.99
2023-03-26T04:59:04.218Z,99.98
2023-03-26T05:00:04.193Z,99.98
2023-03-26T05:01:10.338Z,99.87
2023-03-26T05:02:04.081Z,99.87
2023-03-26T05:03:03.979Z,99.98
2023-03-26T05:04:03.950Z,99.99
2023-03-26T05:05:03.894Z,99.99
2023-03-26T05:06:03.799Z,99.99
2023-03-26T05:07:03.760Z,99.99
2023-03-26T05:08:03.656Z,99.99
2023-03-26T05:09:03.623Z,99.99
2023-03-26T05:10:03.625Z,99.99
2023-03-26T05:11:03.508Z,99.99
2023-03-26T05:12:03.410Z,99.99
2023-03-26T05:13:03.361Z,99.99
2023-03-26T05:14:03.281Z,99.99
2023-03-26T05:15:03.261Z,99.99
2023-03-26T05:16:03.181Z,99.99
2023-03-26T05:17:03.132Z,99.99
2023-03-26T05:18:03.081Z,99.99
2023-03-26T05:19:02.999Z,99.99
2023-03-26T05:20:02.912Z,99.99
2023-03-26T05:21:02.881Z,99.99
2023-03-26T05:22:02.819Z,99.72
2023-03-26T05:23:02.750Z,99.72
2023-03-26T05:24:02.697Z,99.93
2023-03-26T05:25:02.599Z,99.99
2023-03-26T05:26:02.544Z,99.99
2023-03-26T05:27:02.448Z,99.99
2023-03-26T05:28:02.437Z,99.99
2023-03-26T05:29:02.348Z,99.82
2023-03-26T05:30:02.316Z,99.82
2023-03-26T05:31:02.227Z,99.93
2023-03-26T05:32:02.139Z,99.72
2023-03-26T05:33:02.235Z,99.99
2023-03-26T05:34:02.101Z,99.72
2023-03-26T05:35:01.982Z,99.62
2023-03-26T05:36:01.977Z,99.52
2023-03-26T05:37:01.891Z,99.21
2023-03-26T05:38:01.800Z,99.10
2023-03-26T05:39:01.732Z,99.57
2023-03-26T05:40:01.714Z,99.47
2023-03-26T05:41:01.634Z,99.37
2023-03-26T05:42:01.564Z,99.26
2023-03-26T05:43:01.486Z,99.26
2023-03-26T05:44:01.466Z,99.26
2023-03-26T05:45:01.416Z,99.26
2023-03-26T05:46:01.318Z,99.37
2023-03-26T05:47:01.233Z,99.37
2023-03-26T05:48:01.251Z,99.06
2023-03-26T05:49:01.121Z,98.96
2023-03-26T05:50:01.047Z,99.16
2023-03-26T05:51:00.988Z,99.16
2023-03-26T05:52:00.923Z,99.26
2023-03-26T05:53:00.846Z,99.26
2023-03-26T05:54:00.817Z,99.16
2023-03-26T05:55:00.739Z,99.16
2023-03-26T05:56:00.671Z,99.26
2023-03-26T05:57:00.667Z,99.16
2023-03-26T05:58:00.542Z,98.96
2023-03-26T05:59:00.461Z,98.75
2023-03-26T06:00:00.455Z,99.22
2023-03-26T06:01:00.386Z,99.37
2023-03-26T06:02:00.327Z,99.22
2023-03-26T06:03:00.458Z,99.01
2023-03-26T06:04:00.356Z,98.80
2023-03-26T06:05:00.155Z,98.60
2023-03-26T06:06:00.059Z,98.54
2023-03-26T06:07:00.014Z,98.44
2023-03-26T06:07:59.936Z,98.02
2023-03-26T06:09:02.041Z,98.02
2023-03-26T06:09:59.804Z,97.82
2023-03-26T06:10:59.761Z,98.54
2023-03-26T06:11:59.644Z,98.65
2023-03-26T06:12:59.634Z,98.75
2023-03-26T06:13:59.567Z,98.75
2023-03-26T06:14:59.462Z,98.75
2023-03-26T06:15:59.419Z,98.44
2023-03-26T06:16:59.441Z,98.33
2023-03-26T06:17:59.371Z,98.23
2023-03-26T06:18:59.346Z,98.44
2023-03-26T06:19:59.918Z,98.44
2023-03-26T06:20:59.118Z,98.33
2023-03-26T06:21:59.037Z,98.44
2023-03-26T06:22:59.025Z,98.85
2023-03-26T06:23:58.926Z,98.75
2023-03-26T06:24:58.858Z,98.65
2023-03-26T06:25:58.807Z,98.29
2023-03-26T06:26:58.761Z,98.08
2023-03-26T06:27:58.729Z,98.08
2023-03-26T06:28:58.617Z,98.14
2023-03-26T06:29:58.559Z,96.96
2023-03-26T06:30:58.494Z,95.10
2023-03-26T06:32:09.053Z,94.65
2023-03-26T06:32:58.377Z,93.99
2023-03-26T06:33:58.364Z,92.71
2023-03-26T06:34:58.274Z,92.61
2023-03-26T06:35:58.240Z,92.11
2023-03-26T06:36:58.144Z,90.47
2023-03-26T06:37:58.089Z,90.12
2023-03-26T06:38:58.016Z,89.29
2023-03-26T06:39:57.922Z,88.53
2023-03-26T06:41:18.887Z,88.33
2023-03-26T06:41:57.834Z,88.43
2023-03-26T06:43:07.787Z,89.42
2023-03-26T06:43:57.689Z,87.43
2023-03-26T06:44:57.619Z,87.02
2023-03-26T06:45:57.539Z,85.95
2023-03-26T06:46:57.613Z,86.40
2023-03-26T06:47:57.441Z,85.58
2023-03-26T06:48:57.389Z,86.40
2023-03-26T06:49:57.311Z,85.95
2023-03-26T06:50:57.220Z,85.71
2023-03-26T06:51:57.185Z,85.09
2023-03-26T06:52:57.137Z,84.72
2023-03-26T06:53:57.120Z,85.03
2023-03-26T06:54:56.999Z,84.92
2023-03-26T06:55:56.996Z,84.88
2023-03-26T06:56:56.953Z,85.97
2023-03-26T06:57:56.836Z,84.03
2023-03-26T07:00:35.676Z,83.06
2023-03-26T07:01:36.681Z,82.98
2023-03-26T07:02:36.635Z,82.13
2023-03-26T07:03:36.530Z,81.17
2023-03-26T07:04:36.506Z,79.23
2023-03-26T07:05:36.368Z,79.74
2023-03-26T07:06:36.334Z,81.27
2023-03-26T07:07:36.262Z,80.49
2023-03-26T07:08:36.174Z,81.01
2023-03-26T07:09:36.116Z,79.88
2023-03-26T07:10:36.043Z,79.94
2023-03-26T07:11:36.024Z,80.01
2023-03-26T07:12:35.948Z,79.77
2023-03-26T07:13:35.856Z,77.83
2023-03-26T07:14:35.824Z,77.76
2023-03-26T07:15:35.743Z,77.42
2023-03-26T07:16:35.794Z,80.12
2023-03-26T07:17:36.252Z,80.57
2023-03-26T07:18:35.552Z,81.84
2023-03-26T07:19:35.501Z,80.85
2023-03-26T07:20:35.410Z,81.67
2023-03-26T07:21:35.340Z,83.45
2023-03-26T07:22:35.321Z,85.97
2023-03-26T07:23:35.226Z,84.37
2023-03-26T07:24:35.197Z,84.06
2023-03-26T07:25:35.103Z,84.47
2023-03-26T07:26:35.044Z,83.31
2023-03-26T07:27:35.004Z,84.70
2023-03-26T07:28:34.928Z,83.88
2023-03-26T07:29:34.860Z,81.59
2023-03-26T07:30:34.814Z,82.27
2023-03-26T07:31:34.879Z,81.24
2023-03-26T07:32:34.720Z,79.71
2023-03-26T07:33:34.627Z,80.67
2023-03-26T07:34:34.565Z,82.35
2023-03-26T07:35:34.476Z,80.74
2023-03-26T07:36:34.598Z,82.08
2023-03-26T07:37:34.343Z,82.63
2023-03-26T07:38:34.278Z,83.18
2023-03-26T07:39:34.206Z,85.13
2023-03-26T07:40:34.944Z,84.55
2023-03-26T07:41:34.090Z,85.06
2023-03-26T07:42:34.019Z,85.21
2023-03-26T07:43:33.986Z,85.82
2023-03-26T07:44:35.607Z,86.85
2023-03-26T07:45:33.914Z,86.24
2023-03-26T07:46:33.829Z,87.30
2023-03-26T07:47:33.810Z,86.99
2023-03-26T07:48:33.683Z,87.92
2023-03-26T07:49:33.655Z,87.10
2023-03-26T07:50:33.575Z,87.55
2023-03-26T07:51:33.492Z,87.96
2023-03-26T07:53:02.511Z,88.68
2023-03-26T07:53:33.413Z,88.89
2023-03-26T07:54:33.265Z,88.78
2023-03-26T07:55:33.323Z,89.25
2023-03-26T07:56:33.170Z,88.64
2023-03-26T07:57:33.268Z,89.04
2023-03-26T07:58:33.886Z,88.43
2023-03-26T07:59:33.007Z,88.02
2023-03-26T08:00:32.930Z,88.84
2023-03-26T08:01:32.868Z,88.33
2023-03-26T08:02:33.732Z,88.43
2023-03-26T08:03:32.919Z,88.12
2023-03-26T08:04:32.782Z,88.12
2023-03-26T08:05:32.636Z,87.55
2023-03-26T08:06:32.569Z,88.17
2023-03-26T08:07:32.461Z,88.17
2023-03-26T08:08:32.428Z,88.37
2023-03-26T08:09:32.339Z,88.53
2023-03-26T08:10:32.369Z,87.82
2023-03-26T08:11:32.249Z,87.55
2023-03-26T08:12:32.176Z,88.53
2023-03-26T08:13:32.077Z,87.92
2023-03-26T08:14:32.058Z,87.92
2023-03-26T08:15:31.997Z,87.40
2023-03-26T08:16:31.954Z,87.71
2023-03-26T08:17:31.919Z,87.51
2023-03-26T08:18:31.805Z,88.06
2023-03-26T08:19:31.713Z,88.37
2023-03-26T08:20:31.650Z,88.27
2023-03-26T08:21:31.636Z,87.85
2023-03-26T08:27:30.289Z,89.54
2023-03-26T08:28:10.171Z,89.13
2023-03-26T08:29:10.105Z,89.44
2023-03-26T08:30:10.036Z,90.06
2023-03-26T08:31:10.023Z,88.92
2023-03-26T08:32:10.005Z,89.13
2023-03-26T08:34:19.045Z,89.44
2023-03-26T08:35:20.009Z,88.92
2023-03-26T08:36:19.894Z,89.23
2023-03-26T08:37:19.931Z,89.44
2023-03-26T08:38:19.800Z,88.41
2023-03-26T08:39:19.765Z,88.82
2023-03-26T08:40:19.631Z,89.44
2023-03-26T08:41:19.597Z,88.31
2023-03-26T08:42:19.561Z,89.44
2023-03-26T08:43:19.520Z,89.23
2023-03-26T08:44:19.396Z,89.64
2023-03-26T08:45:19.330Z,89.44
2023-03-26T08:46:19.342Z,90.06
2023-03-26T08:47:19.236Z,90.22
2023-03-26T08:48:19.201Z,89.50
2023-03-26T08:49:19.164Z,89.29
2023-03-26T08:50:19.066Z,87.75
2023-03-26T08:51:40.014Z,87.82
2023-03-26T08:52:18.881Z,87.71
2023-03-26T08:53:18.869Z,88.23
2023-03-26T08:54:18.794Z,87.92
2023-03-26T08:55:18.718Z,87.92
2023-03-26T08:56:18.641Z,88.12
2023-03-26T08:57:18.656Z,88.18
2023-03-26T08:58:18.527Z,87.88
2023-03-26T08:59:18.539Z,87.26
2023-03-26T09:00:18.403Z,86.54
2023-03-26T09:01:18.395Z,85.72
2023-03-26T09:02:18.248Z,86.95
2023-03-26T09:03:18.253Z,88.29
2023-03-26T09:04:18.207Z,87.16
2023-03-26T09:05:18.088Z,87.16
2023-03-26T09:06:18.037Z,85.52
2023-03-26T09:07:17.963Z,85.31
2023-03-26T09:08:17.900Z,85.72
2023-03-26T09:09:19.110Z,85.62
2023-03-26T09:10:17.756Z,85.76
2023-03-26T09:11:17.707Z,85.46
2023-03-26T09:12:17.622Z,86.58
2023-03-26T09:13:17.590Z,86.99
2023-03-26T09:14:18.047Z,86.89
2023-03-26T09:15:17.566Z,88.33
2023-03-26T09:16:17.444Z,88.59
2023-03-26T09:17:17.380Z,88.29
2023-03-26T09:18:17.300Z,86.24
2023-03-26T09:19:17.222Z,86.03
2023-03-26T09:20:17.158Z,87.37
2023-03-26T09:21:17.082Z,86.54
2023-03-26T09:22:17.037Z,86.65
2023-03-26T09:23:16.967Z,87.46
2023-03-26T09:24:16.932Z,86.54
2023-03-26T09:25:16.869Z,86.13
2023-03-26T09:26:16.776Z,86.03
2023-03-26T09:27:16.760Z,85.52
2023-03-26T09:28:16.659Z,85.21
2023-03-26T09:29:16.627Z,85.41
2023-03-26T09:30:16.535Z,85.72
2023-03-26T09:31:16.580Z,87.05
2023-03-26T09:32:16.407Z,86.85
2023-03-26T09:33:16.371Z,85.82
2023-03-26T09:34:16.257Z,86.03
2023-03-26T09:35:16.306Z,85.93
2023-03-26T09:36:16.160Z,86.85
2023-03-26T09:37:16.093Z,86.65
2023-03-26T09:38:16.043Z,86.13
2023-03-26T09:39:16.021Z,86.03
2023-03-26T09:40:15.882Z,86.54
2023-03-26T09:41:15.846Z,86.85
2023-03-26T09:42:15.800Z,86.95
2023-03-26T09:43:15.766Z,87.26
2023-03-26T09:44:15.689Z,86.13
2023-03-26T09:45:36.651Z,86.44
2023-03-26T09:46:15.629Z,86.95
2023-03-26T09:47:15.480Z,87.37
2023-03-26T09:48:15.437Z,87.05
2023-03-26T09:49:15.352Z,87.02
2023-03-26T09:50:15.266Z,86.30
2023-03-26T09:51:15.265Z,87.43
2023-03-26T09:52:15.188Z,86.81
2023-03-26T09:53:15.099Z,86.60
2023-03-26T09:54:15.046Z,86.71
2023-03-26T09:55:15.009Z,87.53
2023-03-26T09:56:14.944Z,86.75
2023-03-26T09:57:14.925Z,86.75
2023-03-26T09:58:14.781Z,85.52
2023-03-26T09:59:14.732Z,87.88
2023-03-26T10:00:14.665Z,87.26
2023-03-26T10:01:14.637Z,86.03
2023-03-26T10:02:14.555Z,86.91
2023-03-26T10:03:14.595Z,87.32
2023-03-26T10:04:14.393Z,86.91
2023-03-26T10:05:14.356Z,86.60
2023-03-26T10:06:14.316Z,85.68
2023-03-26T10:07:14.223Z,86.13
2023-03-26T10:08:14.224Z,86.13
2023-03-26T10:09:14.162Z,86.65
2023-03-26T10:10:14.063Z,87.37
2023-03-26T10:11:14.851Z,87.98
2023-03-26T10:12:14.568Z,89.01
2023-03-26T10:13:14.915Z,87.88
2023-03-26T10:14:13.773Z,88.18
2023-03-26T10:15:34.705Z,89.31
2023-03-26T10:16:13.745Z,88.90
2023-03-26T10:17:13.616Z,89.42
2023-03-26T10:18:27.539Z,90.59
2023-03-26T10:19:13.465Z,91.00
2023-03-26T10:20:13.437Z,91.57
2023-03-26T10:21:13.357Z,91.27
2023-03-26T10:22:13.297Z,91.78
2023-03-26T10:23:13.226Z,91.78
2023-03-26T10:24:13.173Z,91.16
2023-03-26T10:25:13.122Z,91.27
2023-03-26T10:26:13.066Z,91.57
2023-03-26T10:27:13.045Z,90.34
2023-03-26T10:28:12.952Z,90.24
2023-03-26T10:29:12.840Z,91.67
2023-03-26T10:30:12.796Z,91.67
2023-03-26T10:31:12.834Z,92.03
2023-03-26T10:32:12.661Z,92.54
2023-03-26T10:33:12.632Z,92.23
2023-03-26T10:34:29.322Z,92.85
2023-03-26T10:35:12.523Z,93.16
2023-03-26T10:36:13.058Z,92.03
2023-03-26T10:37:12.364Z,91.66
2023-03-26T10:38:12.371Z,91.86
2023-03-26T10:39:37.184Z,91.45
2023-03-26T10:40:12.165Z,92.27
2023-03-26T10:41:12.165Z,92.17
2023-03-26T10:42:12.110Z,93.20
2023-03-26T10:43:12.491Z,93.20
2023-03-26T10:44:11.974Z,93.51
2023-03-26T10:45:11.937Z,93.82
2023-03-26T10:46:11.884Z,93.61
2023-03-26T10:47:11.785Z,93.51
2023-03-26T10:48:11.663Z,93.71
2023-03-26T10:49:11.611Z,94.23
2023-03-26T10:50:11.573Z,94.12
2023-03-26T10:51:11.495Z,94.18
2023-03-26T10:52:11.447Z,94.18
2023-03-26T10:53:11.358Z,94.18
2023-03-26T10:54:11.376Z,93.51
2023-03-26T10:55:11.284Z,93.10
2023-03-26T10:56:11.228Z,93.30
2023-03-26T10:57:32.089Z,93.71
2023-03-26T10:58:11.080Z,94.23
2023-03-26T10:59:11.061Z,94.23
2023-03-26T11:00:10.901Z,94.43
2023-03-26T11:01:10.863Z,95.15
2023-03-26T11:02:10.825Z,95.56
2023-03-26T11:03:10.811Z,95.77
2023-03-26T11:04:10.705Z,95.97
2023-03-26T11:05:10.620Z,95.61
2023-03-26T11:06:10.578Z,95.81
2023-03-26T11:07:10.524Z,96.22
2023-03-26T11:08:10.428Z,96.43
2023-03-26T11:09:10.436Z,97.09
2023-03-26T11:10:10.299Z,97.71
2023-03-26T11:11:10.262Z,97.81
2023-03-26T11:12:25.639Z,98.12
2023-03-26T11:13:10.155Z,98.33
2023-03-26T11:14:10.057Z,98.43
2023-03-26T11:15:31.094Z,98.63
2023-03-26T11:16:10.015Z,98.84
2023-03-26T11:17:09.887Z,99.05
2023-03-26T11:18:09.882Z,99.15
2023-03-26T11:19:09.747Z,99.46
2023-03-26T11:20:09.677Z,99.35
2023-03-26T11:21:19.207Z,99.35
2023-03-26T11:22:09.533Z,99.25
2023-03-26T11:23:09.557Z,99.15
2023-03-26T11:24:09.462Z,99.25
2023-03-26T11:25:09.368Z,99.46
2023-03-26T11:26:09.391Z,99.56
2023-03-26T11:27:14.433Z,99.56
2023-03-26T11:28:09.185Z,99.46
2023-03-26T11:29:32.768Z,99.40
2023-03-26T11:30:09.033Z,99.40
2023-03-26T11:31:09.066Z,99.51
2023-03-26T11:32:08.966Z,99.51
2023-03-26T11:34:47.802Z,99.40
2023-03-26T11:35:48.823Z,99.71
2023-03-26T11:36:48.656Z,99.86
2023-03-26T11:37:48.632Z,99.99
2023-03-26T11:38:48.554Z,99.99
2023-03-26T11:39:48.477Z,99.99
2023-03-26T11:40:48.389Z,99.99
2023-03-26T11:41:49.310Z,99.99
2023-03-26T11:42:48.293Z,99.99
2023-03-26T11:43:48.239Z,99.99
2023-03-26T11:44:48.185Z,99.99
2023-03-26T11:45:48.088Z,99.99
2023-03-26T11:46:48.127Z,99.99
2023-03-26T11:47:48.021Z,99.99
2023-03-26T11:48:48.831Z,99.99
2023-03-26T11:49:47.897Z,99.99
2023-03-26T11:52:26.733Z,99.99
2023-03-26T11:53:27.682Z,99.99
2023-03-26T11:54:27.567Z,99.99
2023-03-26T11:55:27.526Z,99.99
2023-03-26T11:56:27.511Z,99.99
2023-03-26T11:57:27.466Z,99.99
2023-03-26T11:58:27.346Z,99.99
2023-03-26T11:59:27.253Z,99.99
2023-03-26T12:00:27.266Z,99.99
2023-03-26T12:01:27.129Z,99.99
2023-03-26T12:02:27.177Z,99.99
2023-03-26T12:03:26.980Z,99.99
2023-03-26T12:04:27.827Z,99.80
2023-03-26T12:05:26.867Z,99.99
2023-03-26T12:06:27.304Z,99.99
2023-03-26T12:07:26.805Z,99.99
2023-03-26T12:08:47.752Z,99.99
2023-03-26T12:09:26.620Z,99.99
2023-03-26T12:10:26.548Z,99.99
2023-03-26T12:11:26.572Z,99.99
2023-03-26T12:12:26.500Z,99.99
2023-03-26T12:13:26.383Z,99.99
2023-03-26T12:14:26.400Z,99.99
2023-03-26T12:15:26.239Z,99.99
2023-03-26T12:16:26.255Z,99.99
2023-03-26T12:17:31.163Z,99.99
2023-03-26T12:18:26.062Z,99.99
2023-03-26T12:19:26.005Z,99.99
2023-03-26T12:20:25.989Z,99.99
2023-03-26T12:21:25.891Z,99.99
2023-03-26T12:22:25.830Z,99.99
2023-03-26T12:23:25.777Z,99.99
2023-03-26T12:24:25.712Z,99.99
2023-03-26T12:25:25.694Z,99.99
2023-03-26T12:26:25.678Z,99.99
2023-03-26T12:27:25.552Z,99.99
2023-03-26T12:28:25.468Z,99.99
2023-03-26T12:29:25.372Z,99.99
2023-03-26T12:30:28.022Z,99.99
2023-03-26T12:31:26.323Z,99.99
2023-03-26T12:32:35.667Z,99.90
2023-03-26T12:33:27.218Z,99.52
2023-03-26T12:34:26.211Z,99.43
2023-03-26T12:35:24.965Z,99.32
2023-03-26T12:36:24.962Z,99.73
2023-03-26T12:37:25.695Z,99.73
2023-03-26T12:38:24.859Z,99.94
2023-03-26T12:40:10.204Z,99.99
2023-03-26T12:40:24.707Z,99.99
2023-03-26T12:43:40.204Z,99.99
2023-03-26T12:45:00.084Z,99.99
2023-03-26T12:45:05.992Z,99.99
2023-03-26T12:47:58.375Z,99.99
2023-03-26T12:48:08.064Z,99.99
2023-03-26T12:48:13.635Z,99.99
2023-03-26T12:49:13.649Z,99.99
2023-03-26T12:50:13.484Z,99.99
2023-03-26T12:51:13.414Z,99.99
2023-03-26T12:52:13.325Z,99.99
2023-03-26T12:53:14.215Z,99.99
2023-03-26T12:54:13.268Z,99.99
2023-03-26T12:55:13.134Z,99.99
2023-03-26T12:56:13.106Z,99.99
2023-03-26T12:57:13.502Z,99.99
2023-03-26T12:58:13.171Z,99.99
2023-03-26T12:59:12.861Z,99.99
2023-03-26T13:00:12.865Z,99.99
2023-03-26T13:01:12.811Z,99.99
2023-03-26T13:02:12.761Z,99.99
2023-03-26T13:03:12.808Z,99.99
2023-03-26T13:04:12.581Z,99.99
2023-03-26T13:05:12.554Z,99.99
2023-03-26T13:06:12.517Z,99.99
2023-03-26T13:07:12.414Z,99.99
2023-03-26T13:08:12.368Z,99.99
2023-03-26T13:09:12.284Z,99.99
2023-03-26T13:10:12.209Z,99.99
2023-03-26T13:11:12.107Z,99.99